Terminal Aerodrome Forecast
Issued by NWS

Home | Current Version | Previous Version | Text Only | Print | Product List | Glossary On
Versions: 1 2 3 4 5 6 7 8 9 10 11 12 13 14 15 16 17 18 19 20 21 22 23 24 25 26 27 28 29 30 31 32 33 34 35 36 37 38
000
FTUS41 KBOX 282339
TAFFMH
TAF
KFMH 282339Z 2900/2924 24012KT P6SM SKC
     FM290700 24009KT 6SM BR SCT200
     FM290900 24008KT 5SM BR SCT090
     FM291300 26005KT P6SM SCT030
     FM291700 22004KT P6SM SCT130
     FM292000 22008KT P6SM SCT200=

USA.gov is the U.S. government's official web portal to all federal, state and local government web resources and services.